createdAt,value
2019-01-26T14:00:25.683Z,3.30
2019-01-26T14:02:54.159Z,1.65
2019-01-26T14:05:22.775Z,2.95
2019-01-26T14:07:51.242Z,4.40
2019-01-26T14:10:23.195Z,3.20
2019-01-26T14:12:53.591Z,3.35
2019-01-26T14:15:22.199Z,2.52
2019-01-26T14:17:50.539Z,2.50
2019-01-26T14:20:19.990Z,2.52
2019-01-26T14:22:48.314Z,2.87
2019-01-26T14:25:16.856Z,2.15
2019-01-26T14:27:45.166Z,1.90
2019-01-26T14:30:15.250Z,2.10
2019-01-26T14:32:43.578Z,4.00
2019-01-26T14:35:10.714Z,4.05
2019-01-26T14:37:37.139Z,4.50
2019-01-26T14:40:05.222Z,5.33
2019-01-26T14:42:33.726Z,4.12
2019-01-26T14:45:00.179Z,3.37
2019-01-26T14:47:26.510Z,3.40
2019-01-26T14:49:58.461Z,3.72
2019-01-26T14:52:21.220Z,2.35
2019-01-26T14:54:47.699Z,8.40
2019-01-26T14:57:14.204Z,8.15
2019-01-26T14:59:40.675Z,7.40
2019-01-26T15:02:07.171Z,3.47
2019-01-26T15:04:33.622Z,5.30
2019-01-26T15:07:00.082Z,4.17
2019-01-26T15:09:26.476Z,3.80
2019-01-26T15:11:52.912Z,6.47
2019-01-26T15:14:19.323Z,7.60
2019-01-26T15:16:46.210Z,11.22
2019-01-26T15:19:13.937Z,7.15
2019-01-26T15:21:40.401Z,7.65
2019-01-26T15:24:06.791Z,7.50
2019-01-26T15:26:33.231Z,6.80
2019-01-26T15:28:59.676Z,5.35
2019-01-26T15:31:26.079Z,4.20
2019-01-26T15:33:52.609Z,2.55
2019-01-26T15:36:19.015Z,3.37
2019-01-26T15:38:45.808Z,3.75
2019-01-26T15:41:12.333Z,4.62
2019-01-26T15:43:38.746Z,3.30
2019-01-26T15:46:05.239Z,2.98
2019-01-26T15:48:31.659Z,4.22
2019-01-26T15:50:59.108Z,4.22
2019-01-26T15:53:25.575Z,2.22
2019-01-26T15:55:51.972Z,2.37
2019-01-26T15:58:18.446Z,3.83
2019-01-26T16:00:45.725Z,2.83
2019-01-26T16:03:13.332Z,2.47
2019-01-26T16:05:39.703Z,3.42
2019-01-26T16:08:06.243Z,2.72
2019-01-26T16:10:32.672Z,3.08
2019-01-26T16:13:01.695Z,2.35
2019-01-26T16:15:30.375Z,2.60
2019-01-26T16:17:57.691Z,3.05
2019-01-26T16:20:24.154Z,5.95
2019-01-26T16:22:50.541Z,23.02
2019-01-26T16:25:17.027Z,2.22
2019-01-26T16:27:43.434Z,4.60
2019-01-26T16:30:14.374Z,3.65
2019-01-26T16:32:40.781Z,2.52
2019-01-26T16:35:08.758Z,3.10
2019-01-26T16:37:35.155Z,6.22
2019-01-26T16:40:01.551Z,3.70
2019-01-26T16:42:27.933Z,3.27
2019-01-26T16:44:54.317Z,3.98
2019-01-26T16:47:20.921Z,5.17
2019-01-26T16:49:47.300Z,2.92
2019-01-26T16:52:14.125Z,6.08
2019-01-26T16:54:40.604Z,7.10
2019-01-26T16:57:07.163Z,6.08
2019-01-26T16:59:33.610Z,2.70
2019-01-26T17:02:00.037Z,5.42
2019-01-26T17:04:26.422Z,5.30
2019-01-26T17:06:52.850Z,6.17
2019-01-26T17:09:19.269Z,5.10
2019-01-26T17:11:45.957Z,4.95
2019-01-26T17:14:14.391Z,4.75
2019-01-26T17:16:40.919Z,3.70
2019-01-26T17:19:09.150Z,5.45
2019-01-26T17:21:35.581Z,4.42
2019-01-26T17:24:01.968Z,3.25
2019-01-26T17:26:28.384Z,3.90
2019-01-26T17:28:54.835Z,2.08
2019-01-26T17:31:21.256Z,5.85
2019-01-26T17:33:47.692Z,6.12
2019-01-26T17:36:14.120Z,5.12
2019-01-26T17:38:40.506Z,5.78
2019-01-26T17:41:06.943Z,4.62
2019-01-26T17:43:33.355Z,4.75
2019-01-26T17:45:59.829Z,5.22
2019-01-26T17:48:27.402Z,2.77
2019-01-26T17:50:54.220Z,4.22
2019-01-26T17:53:22.412Z,3.92
2019-01-26T17:55:48.855Z,5.20
2019-01-26T17:58:17.068Z,4.40
2019-01-26T18:00:48.161Z,4.78
2019-01-26T18:03:14.852Z,3.50
2019-01-26T18:05:41.703Z,3.10
2019-01-26T18:08:08.082Z,3.15
2019-01-26T18:10:34.562Z,3.70
2019-01-26T18:13:01.001Z,4.15
2019-01-26T18:15:27.436Z,3.47
2019-01-26T18:17:53.868Z,3.85
2019-01-26T18:20:26.876Z,4.25
2019-01-26T18:22:53.355Z,5.08
2019-01-26T18:25:19.773Z,10.23
2019-01-26T18:27:46.194Z,3.70
2019-01-26T18:30:14.098Z,3.47
2019-01-26T18:32:40.640Z,5.33
2019-01-26T18:35:08.801Z,8.50
2019-01-26T18:37:36.847Z,4.10
2019-01-26T18:40:05.039Z,5.22
2019-01-26T18:42:31.501Z,4.90
2019-01-26T18:44:57.908Z,9.00
2019-01-26T18:47:25.576Z,10.48
2019-01-26T18:49:52.063Z,8.00
2019-01-26T18:52:18.508Z,3.95
2019-01-26T18:54:44.884Z,6.10
2019-01-26T18:57:11.356Z,6.80
2019-01-26T18:59:37.824Z,6.20
2019-01-26T19:02:04.330Z,7.60
2019-01-26T19:04:30.837Z,6.90
2019-01-26T19:06:58.215Z,8.43
2019-01-26T19:09:24.596Z,9.70
2019-01-26T19:11:51.064Z,6.58
2019-01-26T19:14:17.471Z,10.00
2019-01-26T19:16:46.140Z,6.97
2019-01-26T19:19:12.633Z,6.55
2019-01-26T19:21:39.068Z,6.35
2019-01-26T19:24:05.440Z,7.33
2019-01-26T19:26:31.916Z,7.95
2019-01-26T19:28:58.303Z,8.55
2019-01-26T19:31:25.143Z,9.68
2019-01-26T19:33:51.574Z,8.28
2019-01-26T19:36:18.043Z,8.85
2019-01-26T19:38:44.431Z,8.23
2019-01-26T19:41:11.977Z,7.50
2019-01-26T19:43:38.368Z,7.47
2019-01-26T19:46:04.813Z,9.53
2019-01-26T19:48:31.230Z,7.47
2019-01-26T19:50:57.659Z,6.28
2019-01-26T19:53:24.546Z,4.80
2019-01-26T19:55:50.964Z,7.45
2019-01-26T19:58:17.368Z,7.67
2019-01-26T20:00:43.901Z,10.80
2019-01-26T20:03:10.423Z,7.53
2019-01-26T20:05:36.826Z,9.30
2019-01-26T20:08:03.332Z,6.15
2019-01-26T20:10:29.799Z,7.75
2019-01-26T20:12:56.680Z,7.78
2019-01-26T20:15:23.538Z,5.40
2019-01-26T20:17:49.911Z,9.60
2019-01-26T20:20:18.199Z,8.75
2019-01-26T20:22:44.677Z,5.42
2019-01-26T20:25:11.148Z,7.37
2019-01-26T20:27:37.540Z,9.33
2019-01-26T20:30:05.792Z,6.00
2019-01-26T20:32:32.195Z,7.33
2019-01-26T20:34:58.639Z,8.10
2019-01-26T20:37:27.972Z,9.28
2019-01-26T20:39:54.508Z,5.92
2019-01-26T20:42:20.982Z,7.58
2019-01-26T20:44:49.244Z,6.00
2019-01-26T20:47:15.636Z,5.47
2019-01-26T20:49:43.759Z,9.20
2019-01-26T20:52:10.353Z,7.25
2019-01-26T20:54:37.534Z,3.72
2019-01-26T20:57:04.036Z,4.65
2019-01-26T20:59:32.280Z,5.92
2019-01-26T21:01:58.660Z,4.15
2019-01-26T21:04:25.116Z,5.90
2019-01-26T21:13:56.011Z,4.78
2019-01-26T21:16:24.356Z,8.03
2019-01-26T21:18:52.693Z,6.35
2019-01-26T21:21:21.048Z,8.83
2019-01-26T21:23:53.231Z,8.33
2019-01-26T21:26:23.906Z,11.08
2019-01-26T21:28:52.724Z,9.20
2019-01-26T21:31:21.062Z,9.10
2019-01-26T21:33:50.948Z,14.05
2019-01-26T21:36:20.310Z,13.50
2019-01-26T21:38:50.309Z,10.55
2019-01-26T21:41:18.655Z,10.58
2019-01-26T21:43:46.995Z,12.82
2019-01-26T21:46:15.311Z,9.65
2019-01-26T21:48:44.093Z,7.70
2019-01-26T21:51:14.458Z,14.33
2019-01-26T21:53:42.808Z,10.93
2019-01-26T21:56:11.152Z,12.53
2019-01-26T21:58:39.465Z,14.47
2019-01-26T22:01:07.824Z,8.58
2019-01-26T22:03:37.303Z,13.53
2019-01-26T22:06:06.521Z,13.95
2019-01-26T22:08:36.602Z,17.73
2019-01-26T22:11:04.983Z,16.60
2019-01-26T22:13:33.532Z,14.23
2019-01-26T22:16:01.880Z,23.90
2019-01-26T22:18:32.299Z,14.58
2019-01-26T22:21:02.232Z,14.68
2019-01-26T22:23:30.548Z,10.03
2019-01-26T22:25:58.968Z,21.75
2019-01-26T22:28:27.350Z,24.07
2019-01-26T22:30:55.706Z,21.55
2019-01-26T22:33:24.013Z,24.92
2019-01-26T22:35:52.368Z,19.80
2019-01-26T22:38:20.745Z,17.90
2019-01-26T22:40:49.129Z,17.65
2019-01-26T22:43:17.468Z,18.70
2019-01-26T22:45:45.805Z,18.98
2019-01-26T22:48:15.127Z,17.23
2019-01-26T22:50:43.521Z,17.23
2019-01-26T22:53:11.864Z,15.35
2019-01-26T22:55:40.960Z,19.40
2019-01-26T22:58:10.375Z,11.53
2019-01-26T23:00:50.559Z,12.37
2019-01-26T23:03:22.048Z,14.18
2019-01-26T23:05:57.886Z,16.45
2019-01-26T23:08:27.858Z,16.33
2019-01-26T23:10:57.895Z,20.52
2019-01-26T23:13:26.745Z,20.02
2019-01-26T23:16:05.414Z,17.73
2019-01-26T23:18:39.489Z,14.68
2019-01-26T23:21:15.406Z,16.73
2019-01-26T23:23:51.454Z,20.03
2019-01-26T23:26:27.099Z,25.32
2019-01-26T23:29:14.025Z,19.92
2019-01-26T23:31:43.340Z,22.22
2019-01-26T23:34:11.677Z,17.57
2019-01-26T23:36:40.189Z,11.40
2019-01-26T23:39:08.863Z,16.87
2019-01-26T23:41:37.208Z,9.58
2019-01-26T23:44:05.560Z,7.95
2019-01-26T23:46:35.409Z,8.33
2019-01-26T23:49:03.762Z,7.20
2019-01-26T23:51:32.093Z,10.38
2019-01-26T23:54:00.431Z,12.58
2019-01-26T23:56:29.668Z,9.55
2019-01-26T23:58:58.058Z,12.55
